| time (UTC) | temp F | wind direction | speed knots | gust knots | rain 1hr in | rain 24hr in | rain mn in | humidity % | barometer mb |
| 20260504081542 | 52 | 0 | 0.0 | 0.9 | 0.00 | 0.00 | 0.00 | 71 | 1015.8 |
| 20260504044539 | 54 | 0 | 0.0 | 0.9 | 0.00 | 0.00 | 0.00 | 64 | 1017.0 |
| 20260504043043 | 54 | 0 | 0.0 | 0.9 | 0.00 | 0.00 | 0.00 | 64 | 1017.0 |
| 20260504041541 | 54 | 104 | 0.0 | 0.9 | 0.00 | 0.00 | 0.00 | 65 | 1017.2 |
| 20260504040040 | 55 | 103 | 0.0 | 0.9 | 0.00 | 0.00 | 0.00 | 62 | 1017.2 |
| 20260504034542 | 55 | 0 | 0.0 | 0.9 | 0.00 | 0.00 | 0.00 | 60 | 1017.3 |
| 20260504033041 | 55 | 0 | 0.0 | 0.9 | 0.00 | 0.00 | 0.00 | 58 | 1017.4 |
| 20260504031536 | 55 | 0 | 0.0 | 0.0 | 0.00 | 0.00 | 0.00 | 59 | 1017.2 |
| 20260504030047 | 55 | 0 | 0.0 | 0.0 | 0.00 | 0.00 | 0.00 | 57 | 1017.5 |
| 20260504024539 | 56 | 0 | 0.0 | 0.0 | 0.00 | 0.00 | 0.00 | 53 | 1017.5 |
| 20260504023037 | 56 | 0 | 0.0 | 0.0 | 0.00 | 0.00 | 0.00 | 53 | 1017.5 |
| 20260504021546 | 56 | 0 | 0.0 | 0.0 | 0.00 | 0.00 | 0.00 | 53 | 1017.4 |
| 20260504020043 | 56 | 163 | 0.0 | 0.0 | 0.00 | 0.00 | 0.00 | 53 | 1017.0 |
| 20260504014550 | 56 | 0 | 0.0 | 0.0 | 0.00 | 0.00 | 0.00 | 51 | 1016.9 |
| 20260504013041 | 56 | 0 | 0.0 | 0.0 | 0.00 | 0.00 | 0.00 | 50 | 1016.7 |
| 20260504011537 | 57 | 0 | 0.0 | 0.0 | 0.00 | 0.00 | 0.00 | 51 | 1017.0 |
| 20260504010038 | 58 | 0 | 0.0 | 0.0 | 0.00 | 0.00 | 0.00 | 52 | 1017.0 |
| 20260504004537 | 59 | 0 | 0.0 | 0.0 | 0.00 | 0.00 | 0.00 | 49 | 1016.9 |
| 20260504003037 | 60 | 0 | 0.0 | 0.0 | 0.00 | 0.00 | 0.00 | 45 | 1017.0 |
| 20260504001544 | 61 | 0 | 0.0 | 0.0 | 0.00 | 0.00 | 0.00 | 45 | 1017.1 |
| 20260504000047 | 61 | 0 | 0.0 | 0.0 | 0.00 | 0.00 | 0.00 | 46 | 1017.3 |
| 20260503234540 | 62 | 164 | 0.0 | 0.0 | 0.00 | 0.00 | 0.00 | 44 | 1017.4 |
| 20260503233037 | 62 | 164 | 0.0 | 0.0 | 0.00 | 0.00 | 0.00 | 45 | 1017.3 |
| 20260503231537 | 63 | 0 | 0.0 | 0.9 | 0.00 | 0.00 | 0.00 | 44 | 1017.4 |
| 20260503230038 | 63 | 172 | 0.0 | 0.0 | 0.00 | 0.00 | 0.00 | 45 | 1017.4 |
| 20260503224539 | 63 | 170 | 0.0 | 0.9 | 0.00 | 0.00 | 0.00 | 44 | 1017.7 |
| 20260503223041 | 64 | 100 | 0.0 | 0.9 | 0.00 | 0.00 | 0.00 | 44 | 1017.9 |
| 20260503221539 | 64 | 0 | 0.0 | 1.7 | 0.00 | 0.00 | 0.00 | 42 | 1018.2 |
| 20260503220039 | 65 | 0 | 0.0 | 1.7 | 0.00 | 0.00 | 0.00 | 46 | 1018.3 |
| 20260503214542 | 67 | 50 | 0.0 | 2.6 | 0.00 | 0.00 | 0.00 | 40 | 1018.4 |
| 20260503213038 | 68 | 90 | 0.9 | 1.7 | 0.00 | 0.00 | 0.00 | 39 | 1018.7 |
| 20260503211548 | 67 | 112 | 0.0 | 1.7 | 0.00 | 0.00 | 0.00 | 41 | 1018.8 |
| 20260503210040 | 66 | 331 | 0.9 | 3.5 | 0.00 | 0.00 | 0.00 | 42 | 1018.9 |
| 20260503204539 | 66 | 103 | 0.0 | 3.5 | 0.00 | 0.00 | 0.00 | 43 | 1019.2 |
| 20260503203046 | 65 | 0 | 0.9 | 3.5 | 0.00 | 0.00 | 0.00 | 40 | 1019.6 |
| 20260503201538 | 64 | 325 | 0.9 | 2.6 | 0.00 | 0.00 | 0.00 | 42 | 1020.1 |
| 20260503200052 | 65 | 65 | 0.0 | 1.7 | 0.00 | 0.00 | 0.00 | 41 | 1020.1 |
| 20260503194537 | 64 | 87 | 0.9 | 3.5 | 0.00 | 0.00 | 0.00 | 41 | 1020.3 |
| 20260503193052 | 64 | 73 | 0.9 | 2.6 | 0.00 | 0.00 | 0.00 | 42 | 1020.5 |
| 20260503191544 | 63 | 103 | 0.9 | 3.5 | 0.00 | 0.00 | 0.00 | 40 | 1020.6 |
| 20260503190039 | 63 | 0 | 1.7 | 4.3 | 0.00 | 0.00 | 0.00 | 40 | 1020.8 |
| 20260503184546 | 62 | 23 | 0.9 | 3.5 | 0.00 | 0.00 | 0.00 | 42 | 1021.1 |
| 20260503183042 | 62 | 83 | 1.7 | 4.3 | 0.00 | 0.00 | 0.00 | 37 | 1021.4 |
| 20260503181550 | 63 | 69 | 1.7 | 6.1 | 0.00 | 0.00 | 0.00 | 39 | 1021.3 |
| 20260503180048 | 63 | 60 | 0.9 | 2.6 | 0.00 | 0.00 | 0.00 | 40 | 1021.4 |
| 20260503174546 | 62 | 324 | 2.6 | 4.3 | 0.00 | 0.00 | 0.00 | 41 | 1021.7 |
| 20260503173052 | 63 | 346 | 0.9 | 3.5 | 0.00 | 0.00 | 0.00 | 36 | 1022.0 |
| 20260503171537 | 62 | 64 | 0.0 | 2.6 | 0.00 | 0.00 | 0.00 | 44 | 1022.0 |